Time;durP1;ratioP1;P1;durP2;ratioP2;P2;SDS_P1;SDS_P2;PMS_P1;PMS_P2;Temp;Humidity;BMP_temperature;BMP_pressure;BME280_temperature;BME280_humidity;BME280_pressure;Samples;Min_cycle;Max_cycle;Signal;HPM_P1;HPM_P2
2022/03/05 00:01:04;;;;;;;12.97;6.30;;;1.30;99.90;;;;;;4936272;29;20260;-78
2022/03/05 00:03:31;;;;;;;17.17;7.53;;;1.20;99.90;;;;;;4934599;29;20235;-74
2022/03/05 00:05:57;;;;;;;14.77;7.20;;;1.20;99.90;;;;;;4937711;29;20209;-73
2022/03/05 00:08:24;;;;;;;13.90;6.70;;;1.20;99.90;;;;;;4937630;29;20219;-73
2022/03/05 00:10:51;;;;;;;12.67;6.30;;;1.20;99.90;;;;;;4937684;29;20240;-73
2022/03/05 00:13:18;;;;;;;14.43;7.07;;;1.20;99.90;;;;;;4937917;29;20546;-73
2022/03/05 00:15:46;;;;;;;17.43;7.37;;;1.20;99.90;;;;;;4937649;29;20208;-72
2022/03/05 00:18:14;;;;;;;18.33;7.80;;;1.20;99.90;;;;;;4932781;29;20216;-72
2022/03/05 00:20:42;;;;;;;15.80;8.23;;;1.20;99.90;;;;;;4918576;29;20213;-72
2022/03/05 00:23:09;;;;;;;16.87;8.00;;;1.20;99.90;;;;;;4917921;29;20213;-73
2022/03/05 00:25:37;;;;;;;14.90;7.57;;;1.10;99.90;;;;;;4918088;29;20224;-76
2022/03/05 00:28:04;;;;;;;20.80;10.80;;;1.20;99.90;;;;;;4918257;29;20564;-76
2022/03/05 00:30:30;;;;;;;25.20;10.07;;;1.30;99.90;;;;;;4918483;29;20241;-74
2022/03/05 00:32:58;;;;;;;24.93;10.60;;;1.20;99.90;;;;;;4918281;29;20205;-72
2022/03/05 00:35:26;;;;;;;21.33;9.87;;;1.20;99.90;;;;;;4920219;29;20704;-72
2022/03/05 00:37:53;;;;;;;19.60;8.90;;;1.20;99.90;;;;;;4925691;29;20209;-73
2022/03/05 00:40:19;;;;;;;17.97;8.70;;;1.20;99.90;;;;;;4937094;29;20219;-73
2022/03/05 00:42:46;;;;;;;18.93;9.73;;;1.20;99.90;;;;;;4935874;29;20213;-73
2022/03/05 00:45:13;;;;;;;19.13;8.27;;;1.10;99.90;;;;;;4927523;29;20696;-73
2022/03/05 00:47:40;;;;;;;18.60;9.30;;;1.10;99.90;;;;;;4918340;29;20220;-73
2022/03/05 00:50:09;;;;;;;19.63;8.60;;;1.20;99.90;;;;;;4917810;29;20656;-77
2022/03/05 00:52:37;;;;;;;15.57;7.40;;;1.30;99.90;;;;;;4917897;29;20296;-73
2022/03/05 00:55:05;;;;;;;15.20;6.47;;;1.20;99.90;;;;;;4917653;29;20708;-78
2022/03/05 00:57:32;;;;;;;16.00;7.83;;;1.10;99.90;;;;;;4917223;29;20220;-77
2022/03/05 00:59:59;;;;;;;20.00;8.00;;;1.10;99.90;;;;;;4917611;29;20580;-73
2022/03/05 01:02:26;;;;;;;16.40;7.83;;;1.10;99.90;;;;;;4921105;29;20573;-79
2022/03/05 01:04:52;;;;;;;15.53;6.53;;;1.20;99.90;;;;;;4917671;29;20229;-74
2022/03/05 01:07:19;;;;;;;17.97;7.60;;;1.10;99.90;;;;;;4917546;29;20298;-77
2022/03/05 01:09:47;;;;;;;18.90;7.67;;;1.00;99.90;;;;;;4917764;29;20573;-77
2022/03/05 01:12:14;;;;;;;16.63;7.03;;;1.00;99.90;;;;;;4917836;29;20216;-77
2022/03/05 01:14:41;;;;;;;14.93;7.23;;;1.00;99.90;;;;;;4917533;29;20229;-74
2022/03/05 01:17:08;;;;;;;16.43;7.67;;;1.00;99.90;;;;;;4917338;29;20218;-73
2022/03/05 01:19:35;;;;;;;13.33;6.40;;;1.00;99.90;;;;;;4920975;29;20209;-78
2022/03/05 01:22:01;;;;;;;12.33;7.40;;;0.90;99.90;;;;;;4917369;29;20213;-74
2022/03/05 01:24:28;;;;;;;17.97;7.47;;;0.90;99.90;;;;;;4917654;29;20240;-73
2022/03/05 01:26:56;;;;;;;20.07;8.07;;;0.90;99.90;;;;;;4917645;29;20216;-73
2022/03/05 01:29:23;;;;;;;17.87;7.00;;;0.80;99.90;;;;;;4917251;29;20209;-73
2022/03/05 01:31:50;;;;;;;18.17;6.93;;;0.80;99.90;;;;;;4917050;29;20592;-75
2022/03/05 01:34:17;;;;;;;16.17;6.83;;;0.80;99.90;;;;;;4920044;29;20228;-73
2022/03/05 01:36:44;;;;;;;17.80;8.37;;;0.80;99.90;;;;;;4917316;29;20209;-78
2022/03/05 01:39:10;;;;;;;16.13;8.13;;;0.80;99.90;;;;;;4917410;29;20216;-77
2022/03/05 01:41:37;;;;;;;19.00;8.20;;;0.90;99.90;;;;;;4917363;29;20225;-74
2022/03/05 01:44:06;;;;;;;15.03;7.43;;;0.90;99.90;;;;;;4917393;29;20288;-74
2022/03/05 01:46:35;;;;;;;14.57;7.70;;;0.80;99.90;;;;;;4923017;29;20197;-74
2022/03/05 01:49:03;;;;;;;16.47;8.20;;;0.80;99.90;;;;;;4916731;29;20224;-78
2022/03/05 01:51:30;;;;;;;23.43;8.73;;;0.80;99.90;;;;;;4916990;29;20241;-73
2022/03/05 01:53:56;;;;;;;18.90;6.90;;;0.80;99.90;;;;;;4917247;29;20229;-75
2022/03/05 01:56:25;;;;;;;13.43;6.20;;;0.70;99.90;;;;;;4917157;29;20294;-73
2022/03/05 01:58:52;;;;;;;15.23;7.33;;;0.70;99.90;;;;;;4917245;29;20210;-76
2022/03/05 02:01:24;;;;;;;17.03;7.73;;;0.70;99.90;;;;;;4916860;29;20663;-74
2022/03/05 02:03:51;;;;;;;15.43;7.20;;;0.60;99.90;;;;;;4919736;29;20228;-73
2022/03/05 02:06:18;;;;;;;18.77;8.07;;;0.70;99.90;;;;;;4916612;29;21366;-73
2022/03/05 02:08:45;;;;;;;22.33;9.00;;;0.80;99.90;;;;;;4916304;29;20653;-74
2022/03/05 02:11:12;;;;;;;17.53;8.63;;;0.70;99.90;;;;;;4916646;29;20260;-78
2022/03/05 02:13:39;;;;;;;19.03;8.13;;;0.80;99.90;;;;;;4916721;29;20230;-77
2022/03/05 02:16:06;;;;;;;18.33;7.77;;;0.70;99.90;;;;;;4916652;29;20231;-73
2022/03/05 02:18:34;;;;;;;20.63;8.10;;;0.60;99.90;;;;;;4916564;29;20569;-73
2022/03/05 02:21:03;;;;;;;19.20;7.53;;;0.50;99.90;;;;;;4920110;29;20295;-74
2022/03/05 02:23:30;;;;;;;15.43;7.67;;;0.50;99.90;;;;;;4916432;29;20608;-75
2022/03/05 02:25:59;;;;;;;20.90;8.20;;;0.40;99.90;;;;;;4916834;29;20210;-79
2022/03/05 02:28:27;;;;;;;17.73;8.77;;;0.40;99.90;;;;;;4916409;29;20220;-75
2022/03/05 02:30:55;;;;;;;15.10;7.10;;;0.40;99.90;;;;;;4916431;29;20592;-74
2022/03/05 02:33:22;;;;;;;17.30;7.20;;;0.40;99.90;;;;;;4916304;29;20232;-77
2022/03/05 02:35:49;;;;;;;14.60;6.77;;;0.40;99.90;;;;;;4916657;29;20213;-77
2022/03/05 02:38:19;;;;;;;15.60;7.97;;;0.40;99.90;;;;;;4919842;29;20208;-75
2022/03/05 02:40:47;;;;;;;12.97;6.50;;;0.40;99.90;;;;;;4916423;29;20224;-78
2022/03/05 02:43:14;;;;;;;13.90;7.10;;;0.30;99.90;;;;;;4916397;29;20209;-76
2022/03/05 02:45:41;;;;;;;18.73;7.53;;;0.40;99.90;;;;;;4916493;29;20213;-75
2022/03/05 02:48:09;;;;;;;15.57;7.43;;;0.40;99.90;;;;;;4916500;29;20215;-74
2022/03/05 02:50:36;;;;;;;18.90;7.33;;;0.40;99.90;;;;;;4916498;29;20244;-72
2022/03/05 02:53:04;;;;;;;16.47;7.10;;;0.30;99.90;;;;;;4916767;29;20209;-76
2022/03/05 02:55:32;;;;;;;15.63;6.80;;;0.40;99.90;;;;;;4919290;29;20217;-72
2022/03/05 02:57:59;;;;;;;16.57;7.27;;;0.40;99.90;;;;;;4916618;29;20210;-73
2022/03/05 03:00:26;;;;;;;18.23;8.07;;;0.40;99.90;;;;;;4916449;29;20657;-72
2022/03/05 03:02:53;;;;;;;15.53;6.17;;;0.40;99.90;;;;;;4916405;29;20210;-74
2022/03/05 03:05:21;;;;;;;12.27;6.90;;;0.40;99.90;;;;;;4916580;29;20226;-77
2022/03/05 03:07:49;;;;;;;14.73;6.83;;;0.40;99.90;;;;;;4916384;29;20589;-77
2022/03/05 03:10:16;;;;;;;12.83;7.07;;;0.40;99.90;;;;;;4917553;29;20208;-74
2022/03/05 03:12:45;;;;;;;14.07;7.03;;;0.40;99.90;;;;;;4934453;29;20216;-77
2022/03/05 03:15:14;;;;;;;12.53;6.37;;;0.40;99.90;;;;;;4934946;29;20689;-75
2022/03/05 03:17:42;;;;;;;15.30;6.30;;;0.30;99.90;;;;;;4935347;29;20235;-72
2022/03/05 03:20:10;;;;;;;12.97;6.70;;;0.30;99.90;;;;;;4936081;29;20668;-72
2022/03/05 03:22:38;;;;;;;15.93;6.60;;;0.20;99.90;;;;;;4938668;29;20993;-73
2022/03/05 03:25:05;;;;;;;12.40;6.63;;;0.30;99.90;;;;;;4938728;29;20247;-76
2022/03/05 03:27:32;;;;;;;16.87;7.87;;;0.30;99.90;;;;;;4926967;29;20846;-72
2022/03/05 03:30:00;;;;;;;20.77;6.97;;;0.20;99.90;;;;;;4936752;29;20223;-73
2022/03/05 03:32:27;;;;;;;16.80;7.13;;;0.20;99.90;;;;;;4932870;29;20230;-72
2022/03/05 03:34:54;;;;;;;15.87;5.90;;;0.30;99.90;;;;;;4918682;29;20237;-73
2022/03/05 03:37:20;;;;;;;18.43;6.60;;;0.30;99.90;;;;;;4918894;29;20211;-73
2022/03/05 03:39:47;;;;;;;12.87;6.27;;;0.30;99.90;;;;;;4919103;29;20589;-74
2022/03/05 03:42:14;;;;;;;15.10;6.27;;;0.30;99.90;;;;;;4919186;29;20221;-73
2022/03/05 03:44:41;;;;;;;11.57;5.83;;;0.30;99.90;;;;;;4918963;29;20592;-76
2022/03/05 03:47:09;;;;;;;12.40;5.70;;;0.30;99.90;;;;;;4919264;29;20217;-73
2022/03/05 03:49:36;;;;;;;15.20;6.90;;;0.20;99.90;;;;;;4919127;29;20568;-73
2022/03/05 03:52:03;;;;;;;15.57;6.43;;;0.20;99.90;;;;;;4919211;29;20237;-76
2022/03/05 03:54:30;;;;;;;17.10;6.57;;;0.00;99.90;;;;;;4919254;29;20236;-76
2022/03/05 03:56:57;;;;;;;14.37;6.67;;;0.00;99.90;;;;;;4918517;29;20676;-76
2022/03/05 03:59:24;;;;;;;13.50;6.60;;;-0.10;99.90;;;;;;4922229;29;20212;-75
2022/03/05 04:01:51;;;;;;;12.20;6.53;;;-0.10;99.90;;;;;;4918855;29;20214;-72
2022/03/05 04:04:19;;;;;;;16.33;6.30;;;0.10;99.90;;;;;;4918592;29;20225;-72
2022/03/05 04:09:30;;;;;;;14.60;6.60;;;0.10;99.90;;;;;;4919043;29;20224;-78
2022/03/05 04:11:57;;;;;;;13.77;6.57;;;0.10;99.90;;;;;;4919062;29;20246;-73
2022/03/05 04:14:23;;;;;;;11.60;6.67;;;0.10;99.90;;;;;;4921574;29;20230;-77
2022/03/05 04:16:50;;;;;;;14.63;6.30;;;0.10;99.90;;;;;;4918845;29;20228;-76
2022/03/05 04:19:18;;;;;;;10.63;6.10;;;0.20;99.90;;;;;;4918624;29;20221;-76
2022/03/05 04:21:45;;;;;;;14.50;6.83;;;0.10;99.90;;;;;;4918703;29;20585;-75
2022/03/05 04:24:12;;;;;;;14.70;6.90;;;0.20;99.90;;;;;;4918508;29;20708;-73
2022/03/05 04:26:38;;;;;;;13.77;6.67;;;0.10;99.90;;;;;;4918400;29;20221;-73
2022/03/05 04:29:05;;;;;;;15.27;6.90;;;0.20;99.90;;;;;;4918328;29;20209;-75
2022/03/05 04:31:32;;;;;;;15.63;6.63;;;0.10;99.90;;;;;;4921495;29;20708;-72
2022/03/05 04:33:59;;;;;;;9.83;5.87;;;0.00;99.90;;;;;;4918080;29;20225;-74
2022/03/05 04:36:27;;;;;;;11.87;6.47;;;-0.10;99.90;;;;;;4918319;29;20221;-75
2022/03/05 04:38:54;;;;;;;12.37;5.80;;;-0.10;99.90;;;;;;4918494;29;20221;-72
2022/03/05 04:41:21;;;;;;;12.60;6.13;;;-0.10;99.90;;;;;;4922123;29;20217;-74
2022/03/05 04:43:48;;;;;;;13.43;6.53;;;-0.20;99.90;;;;;;4933923;29;20228;-75
2022/03/05 04:46:15;;;;;;;10.77;5.73;;;-0.30;99.90;;;;;;4937059;29;20693;-73
2022/03/05 04:48:42;;;;;;;12.60;6.77;;;-0.30;99.90;;;;;;4937095;29;20303;-74
2022/03/05 04:51:09;;;;;;;17.20;6.53;;;-0.30;99.90;;;;;;4937176;29;20233;-74
2022/03/05 04:53:37;;;;;;;21.00;6.13;;;-0.20;99.90;;;;;;4937206;29;20233;-71
2022/03/05 04:56:04;;;;;;;15.20;6.73;;;-0.20;99.90;;;;;;4936934;29;20209;-76
2022/03/05 04:58:31;;;;;;;17.87;7.67;;;-0.30;99.90;;;;;;4934392;29;20200;-73
2022/03/05 05:00:57;;;;;;;11.00;6.07;;;-0.40;99.90;;;;;;4917972;29;20209;-77
2022/03/05 05:03:24;;;;;;;14.27;6.57;;;-0.40;99.90;;;;;;4917869;29;20291;-73
2022/03/05 05:05:51;;;;;;;17.47;8.10;;;-0.40;99.90;;;;;;4917733;29;20214;-72
2022/03/05 05:08:18;;;;;;;16.20;6.33;;;-0.30;99.90;;;;;;4917820;29;20220;-76
2022/03/05 05:10:46;;;;;;;15.60;7.53;;;-0.30;99.90;;;;;;4918065;29;20219;-74
2022/03/05 05:13:12;;;;;;;15.33;6.37;;;-0.20;99.90;;;;;;4917438;29;20245;-77
2022/03/05 05:15:39;;;;;;;16.20;7.80;;;-0.20;99.90;;;;;;4924096;29;20205;-77
2022/03/05 05:18:06;;;;;;;19.73;8.77;;;-0.10;99.90;;;;;;4936233;29;20224;-77
2022/03/05 05:20:33;;;;;;;13.93;7.03;;;-0.20;99.90;;;;;;4936267;29;20212;-76
2022/03/05 05:23:00;;;;;;;15.23;6.17;;;-0.30;99.90;;;;;;4936534;29;20216;-73
2022/03/05 05:25:27;;;;;;;10.53;5.57;;;-0.40;99.90;;;;;;4936336;29;20236;-73
2022/03/05 05:27:55;;;;;;;10.40;5.33;;;-0.50;99.90;;;;;;4936307;29;20580;-72
2022/03/05 05:30:22;;;;;;;11.60;5.90;;;-0.40;99.90;;;;;;4936489;29;20208;-77
2022/03/05 05:32:49;;;;;;;12.47;5.77;;;-0.40;99.90;;;;;;4934053;29;20239;-73
2022/03/05 05:35:15;;;;;;;15.83;5.33;;;-0.40;99.90;;;;;;4917004;29;20727;-73
2022/03/05 05:37:42;;;;;;;17.27;7.57;;;-0.40;99.90;;;;;;4917276;29;20269;-77
2022/03/05 05:40:10;;;;;;;14.23;6.03;;;-0.50;99.90;;;;;;4917257;29;20318;-78
2022/03/05 05:42:37;;;;;;;11.03;6.13;;;-0.40;99.90;;;;;;4917141;29;20570;-78
2022/03/05 05:45:06;;;;;;;14.13;6.53;;;-0.50;99.90;;;;;;4917212;29;20240;-77
2022/03/05 05:47:33;;;;;;;13.80;6.83;;;-0.50;99.90;;;;;;4917263;29;20210;-73
2022/03/05 05:50:00;;;;;;;14.67;6.43;;;-0.50;99.90;;;;;;4920045;29;20568;-77
2022/03/05 05:52:27;;;;;;;12.80;6.33;;;-0.50;99.90;;;;;;4916985;29;20237;-77
2022/03/05 05:54:54;;;;;;;13.23;6.63;;;-0.50;99.90;;;;;;4917065;29;20229;-77
2022/03/05 05:57:20;;;;;;;16.20;7.17;;;-0.40;99.90;;;;;;4916893;29;20668;-76
2022/03/05 05:59:47;;;;;;;14.80;7.50;;;-0.50;99.90;;;;;;4916896;29;20217;-77
2022/03/05 06:02:16;;;;;;;16.53;6.80;;;-0.50;99.90;;;;;;4916540;29;20661;-76
2022/03/05 06:04:43;;;;;;;10.73;5.33;;;-0.50;99.90;;;;;;4916514;29;20284;-77
2022/03/05 06:07:10;;;;;;;12.77;6.23;;;-0.40;99.90;;;;;;4932369;29;20205;-74
2022/03/05 06:09:36;;;;;;;15.93;6.47;;;-0.40;99.90;;;;;;4935654;29;20220;-73
2022/03/05 06:12:04;;;;;;;17.00;7.10;;;-0.40;99.90;;;;;;4935597;29;20720;-76
2022/03/05 06:14:31;;;;;;;12.77;6.43;;;-0.50;99.90;;;;;;4936006;29;20248;-76
2022/03/05 06:16:57;;;;;;;15.13;7.07;;;-0.40;99.90;;;;;;4935807;29;20675;-77
2022/03/05 06:19:25;;;;;;;14.30;6.53;;;-0.40;99.90;;;;;;4935125;29;20209;-73
2022/03/05 06:21:53;;;;;;;19.70;6.13;;;-0.40;99.90;;;;;;4935287;29;20281;-77
2022/03/05 06:24:19;;;;;;;15.63;7.53;;;-0.40;99.90;;;;;;4919926;29;20229;-73
2022/03/05 06:26:46;;;;;;;16.07;6.93;;;-0.40;99.90;;;;;;4916741;29;20220;-73
2022/03/05 06:29:13;;;;;;;15.67;7.20;;;-0.30;99.90;;;;;;4916626;29;20224;-72
2022/03/05 06:31:40;;;;;;;13.33;6.83;;;-0.30;99.90;;;;;;4916394;29;20229;-76
2022/03/05 06:34:07;;;;;;;12.47;6.17;;;-0.40;99.90;;;;;;4916499;29;20225;-75
2022/03/05 06:36:35;;;;;;;14.30;7.60;;;-0.40;99.90;;;;;;4916634;29;20209;-76
2022/03/05 06:39:03;;;;;;;11.80;7.13;;;-0.40;99.90;;;;;;4920879;29;20694;-76
2022/03/05 06:41:29;;;;;;;13.70;6.00;;;-0.30;99.90;;;;;;4924729;29;20213;-76
2022/03/05 06:43:56;;;;;;;15.80;6.63;;;-0.30;99.90;;;;;;4935301;29;20233;-75
2022/03/05 06:46:23;;;;;;;12.30;6.60;;;-0.40;99.90;;;;;;4920433;29;20209;-77
2022/03/05 06:48:50;;;;;;;18.17;7.70;;;-0.40;99.90;;;;;;4916494;29;20216;-75
2022/03/05 06:51:17;;;;;;;14.63;6.40;;;-0.30;99.90;;;;;;4916532;29;20214;-76
2022/03/05 06:53:45;;;;;;;15.13;6.60;;;0.00;99.90;;;;;;4915966;29;20249;-72
2022/03/05 06:56:11;;;;;;;18.40;7.40;;;0.60;99.90;;;;;;4919394;29;20210;-78
2022/03/05 06:58:38;;;;;;;21.03;7.13;;;1.20;99.90;;;;;;4920471;29;20298;-71
2022/03/05 07:01:05;;;;;;;18.43;7.13;;;1.90;99.90;;;;;;4920179;29;20213;-77
2022/03/05 07:03:32;;;;;;;17.53;7.60;;;2.50;99.90;;;;;;4919805;29;20244;-73
2022/03/05 07:05:58;;;;;;;17.83;7.90;;;3.10;99.90;;;;;;4919955;29;20216;-73
2022/03/05 07:08:25;;;;;;;17.50;7.07;;;3.70;99.90;;;;;;4919923;29;20212;-74
2022/03/05 07:10:53;;;;;;;12.37;6.70;;;4.20;99.90;;;;;;4922167;29;20201;-76
2022/03/05 07:13:20;;;;;;;16.07;6.83;;;4.80;99.90;;;;;;4919664;29;20245;-77
2022/03/05 07:15:47;;;;;;;14.07;6.70;;;5.40;99.90;;;;;;4919817;29;20205;-78
2022/03/05 07:18:14;;;;;;;15.73;7.17;;;5.80;99.90;;;;;;4919308;29;20224;-78
2022/03/05 07:20:40;;;;;;;17.23;7.60;;;6.10;99.90;;;;;;4919491;29;20216;-78
2022/03/05 07:23:07;;;;;;;18.23;7.37;;;6.50;99.90;;;;;;4919594;29;20221;-73
2022/03/05 07:25:39;;;;;;;16.43;8.07;;;7.10;99.90;;;;;;4919816;29;20213;-78
2022/03/05 07:28:08;;;;;;;16.00;6.97;;;7.50;99.90;;;;;;4935795;29;20264;-76
2022/03/05 07:30:35;;;;;;;16.33;7.67;;;7.90;99.90;;;;;;4938112;29;20213;-77
2022/03/05 07:33:03;;;;;;;16.90;8.03;;;8.00;99.90;;;;;;4938202;29;20232;-73
2022/03/05 07:35:29;;;;;;;17.63;8.20;;;8.30;99.90;;;;;;4938155;29;20233;-73
2022/03/05 07:37:56;;;;;;;20.07;9.00;;;8.70;99.90;;;;;;4938241;29;20217;-73
2022/03/05 07:40:23;;;;;;;15.33;7.07;;;8.90;99.50;;;;;;4938189;29;20208;-73
2022/03/05 07:42:50;;;;;;;17.73;7.63;;;9.30;99.20;;;;;;4936346;29;20216;-78
2022/03/05 07:45:18;;;;;;;16.30;7.33;;;9.40;98.80;;;;;;4927306;29;20220;-78
2022/03/05 07:47:45;;;;;;;15.57;7.23;;;9.70;98.60;;;;;;4938280;29;20205;-78
2022/03/05 07:50:12;;;;;;;13.27;6.93;;;9.80;98.30;;;;;;4926753;29;20210;-78
2022/03/05 07:52:39;;;;;;;15.60;7.10;;;9.90;98.00;;;;;;4919309;29;20234;-78
2022/03/05 07:55:06;;;;;;;11.87;6.30;;;10.30;97.20;;;;;;4919202;29;20240;-78
2022/03/05 07:57:33;;;;;;;14.20;6.47;;;10.50;97.10;;;;;;4919238;29;20209;-74
2022/03/05 08:00:00;;;;;;;12.97;6.80;;;10.60;96.80;;;;;;4919092;29;20225;-75
2022/03/05 08:02:28;;;;;;;12.77;6.40;;;10.70;96.70;;;;;;4919905;29;20224;-78
2022/03/05 08:04:55;;;;;;;13.70;6.50;;;11.20;96.30;;;;;;4925880;29;20230;-77
2022/03/05 08:07:23;;;;;;;12.50;6.27;;;11.30;96.00;;;;;;4918597;29;20219;-72
2022/03/05 08:09:49;;;;;;;15.30;8.20;;;11.60;95.70;;;;;;4922799;29;20201;-78
2022/03/05 08:12:16;;;;;;;14.50;7.23;;;11.60;95.80;;;;;;4937577;29;20860;-74
2022/03/05 08:14:44;;;;;;;13.47;6.90;;;11.50;95.90;;;;;;4937919;29;20229;-75
2022/03/05 08:17:11;;;;;;;11.80;5.90;;;11.70;95.70;;;;;;4937697;29;20640;-73
2022/03/05 08:19:39;;;;;;;13.67;6.83;;;11.80;95.80;;;;;;4937403;29;20230;-73
2022/03/05 08:22:06;;;;;;;14.67;6.67;;;12.40;94.50;;;;;;4923023;29;20205;-77
2022/03/05 08:24:33;;;;;;;12.27;6.40;;;12.60;94.20;;;;;;4918406;29;20229;-72
2022/03/05 08:27:00;;;;;;;15.10;6.57;;;13.00;93.90;;;;;;4918776;29;20221;-74
2022/03/05 08:29:27;;;;;;;12.57;6.30;;;13.10;92.40;;;;;;4918823;29;20213;-73
2022/03/05 08:31:54;;;;;;;15.70;6.87;;;13.30;92.10;;;;;;4918059;29;20259;-77
2022/03/05 08:34:20;;;;;;;13.80;6.87;;;13.70;91.40;;;;;;4917863;29;20252;-73
2022/03/05 08:36:49;;;;;;;16.37;7.13;;;14.00;91.30;;;;;;4918296;29;20295;-73
2022/03/05 08:39:16;;;;;;;17.17;7.10;;;13.80;89.70;;;;;;4918314;29;20210;-72
2022/03/05 08:41:42;;;;;;;27.60;7.73;;;13.30;89.50;;;;;;4918341;29;20213;-75
2022/03/05 08:44:09;;;;;;;15.40;7.07;;;13.30;89.70;;;;;;4918379;29;20236;-74
2022/03/05 08:46:36;;;;;;;22.33;7.13;;;13.30;90.20;;;;;;4918076;29;20216;-73
2022/03/05 08:49:03;;;;;;;14.80;6.93;;;13.30;88.60;;;;;;4917752;29;20669;-74
2022/03/05 08:51:30;;;;;;;13.10;6.77;;;13.10;89.10;;;;;;4918077;29;20220;-76
2022/03/05 08:53:58;;;;;;;13.70;6.37;;;13.20;87.90;;;;;;4918085;29;20241;-73
2022/03/05 08:56:25;;;;;;;12.60;6.27;;;12.90;88.00;;;;;;4917943;29;20210;-74
2022/03/05 08:58:51;;;;;;;13.77;6.50;;;13.30;87.70;;;;;;4918222;29;20210;-73
2022/03/05 09:01:18;;;;;;;14.27;6.90;;;13.40;87.60;;;;;;4917973;29;20210;-73
2022/03/05 09:03:45;;;;;;;16.47;7.37;;;13.80;86.80;;;;;;4921439;29;20229;-76
2022/03/05 09:06:12;;;;;;;16.97;8.10;;;13.90;88.70;;;;;;4936113;29;20220;-73
2022/03/05 09:08:38;;;;;;;17.57;7.27;;;14.10;89.10;;;;;;4934279;29;20231;-72
2022/03/05 09:11:07;;;;;;;15.43;7.33;;;13.80;88.60;;;;;;4918969;29;20210;-73
2022/03/05 09:13:33;;;;;;;15.20;7.50;;;14.00;88.50;;;;;;4917597;29;20245;-73
2022/03/05 09:16:00;;;;;;;15.43;7.00;;;14.10;88.00;;;;;;4927203;29;20208;-72
2022/03/05 09:18:28;;;;;;;16.93;8.17;;;13.80;88.10;;;;;;4935595;29;20217;-73
2022/03/05 09:20:55;;;;;;;17.90;7.50;;;13.80;86.70;;;;;;4936259;29;20209;-73
2022/03/05 09:23:22;;;;;;;16.80;8.37;;;13.60;87.00;;;;;;4936392;29;20220;-77
2022/03/05 09:25:49;;;;;;;18.67;7.67;;;13.20;88.20;;;;;;4927165;29;20216;-77
2022/03/05 09:28:17;;;;;;;17.10;6.70;;;12.70;89.40;;;;;;4917245;29;20665;-72
2022/03/05 09:30:43;;;;;;;15.10;6.10;;;11.80;87.60;;;;;;4917693;29;20213;-73
2022/03/05 09:33:11;;;;;;;18.93;7.37;;;11.40;87.40;;;;;;4917217;29;20240;-76
2022/03/05 09:35:38;;;;;;;17.57;8.07;;;11.00;90.10;;;;;;4917281;29;20213;-73
2022/03/05 09:38:05;;;;;;;17.50;7.17;;;10.80;90.30;;;;;;4916352;29;20355;-73
2022/03/05 09:40:33;;;;;;;14.60;6.87;;;10.80;89.80;;;;;;4923420;29;20212;-76
2022/03/05 09:43:01;;;;;;;18.50;7.47;;;10.60;90.50;;;;;;4931732;29;20209;-76
2022/03/05 09:45:29;;;;;;;18.60;7.80;;;10.40;91.30;;;;;;4932644;29;20235;-75
2022/03/05 09:47:57;;;;;;;15.67;7.43;;;10.50;92.60;;;;;;4931935;29;20708;-73
2022/03/05 09:50:28;;;;;;;15.20;7.47;;;10.10;93.00;;;;;;4934858;29;20205;-71
2022/03/05 09:52:55;;;;;;;16.13;7.37;;;10.10;94.00;;;;;;4935557;29;20232;-73
2022/03/05 09:55:22;;;;;;;18.87;7.43;;;10.00;93.90;;;;;;4935316;29;20239;-76
2022/03/05 09:57:49;;;;;;;17.63;6.67;;;10.00;93.20;;;;;;4935606;29;20220;-75
2022/03/05 10:00:16;;;;;;;15.97;6.90;;;9.90;92.50;;;;;;4931682;29;20209;-72
2022/03/05 10:02:46;;;;;;;19.27;7.43;;;9.70;92.40;;;;;;4935546;29;20265;-77
2022/03/05 10:05:18;;;;;;;18.77;7.20;;;9.70;92.40;;;;;;4935082;29;20224;-75
2022/03/05 10:08:07;;;;;;;14.93;6.93;;;9.80;92.20;;;;;;4935192;29;20215;-72
2022/03/05 10:10:41;;;;;;;16.53;8.60;;;9.70;92.60;;;;;;4935525;29;20304;-75
2022/03/05 10:13:17;;;;;;;19.77;7.60;;;9.80;94.60;;;;;;4922531;29;20233;-75
2022/03/05 10:15:43;;;;;;;21.80;8.43;;;9.80;94.00;;;;;;4915799;29;20213;-72
2022/03/05 10:18:14;;;;;;;17.93;8.63;;;9.90;93.80;;;;;;4915683;29;20217;-72
2022/03/05 10:20:45;;;;;;;20.30;8.93;;;9.80;94.20;;;;;;4916299;29;20217;-77
2022/03/05 10:23:12;;;;;;;19.50;8.53;;;9.70;94.90;;;;;;4915781;29;20220;-76
2022/03/05 10:25:41;;;;;;;19.70;7.90;;;9.70;95.00;;;;;;4915751;29;20209;-75
2022/03/05 10:28:10;;;;;;;19.80;9.20;;;9.80;95.20;;;;;;4915616;29;20210;-71
2022/03/05 10:30:39;;;;;;;17.80;8.63;;;9.80;95.20;;;;;;4919166;29;20558;-72
2022/03/05 10:33:07;;;;;;;19.93;8.27;;;9.60;96.00;;;;;;4919727;29;20244;-72
2022/03/05 10:35:36;;;;;;;17.67;8.23;;;9.60;95.90;;;;;;4920411;29;20201;-75
2022/03/05 10:38:03;;;;;;;18.20;8.40;;;9.60;95.70;;;;;;4920509;29;20220;-73
2022/03/05 10:40:33;;;;;;;16.10;7.97;;;9.40;95.90;;;;;;4920334;29;20221;-72
2022/03/05 10:43:02;;;;;;;18.80;7.57;;;9.50;95.80;;;;;;4919911;29;20217;-72
2022/03/05 10:45:30;;;;;;;19.90;8.33;;;9.60;95.80;;;;;;4919987;29;20240;-72
2022/03/05 10:47:59;;;;;;;22.60;9.73;;;9.60;96.10;;;;;;4919966;29;20202;-72
2022/03/05 10:50:28;;;;;;;19.83;9.17;;;9.70;95.90;;;;;;4919981;29;20284;-72
2022/03/05 10:53:00;;;;;;;17.37;7.60;;;9.80;95.70;;;;;;4919841;29;20209;-72
2022/03/05 10:55:29;;;;;;;19.43;7.93;;;9.50;96.10;;;;;;4920356;29;20584;-73
2022/03/05 10:58:13;;;;;;;19.73;8.57;;;9.50;95.60;;;;;;4920236;29;20209;-72
2022/03/05 11:00:41;;;;;;;18.00;8.70;;;9.70;94.60;;;;;;4920072;29;20740;-76
2022/03/05 11:03:08;;;;;;;18.27;7.77;;;9.80;95.40;;;;;;4920018;29;20573;-72
2022/03/05 11:05:36;;;;;;;22.27;7.97;;;9.90;95.30;;;;;;4920266;29;20213;-72
2022/03/05 11:08:06;;;;;;;21.97;9.47;;;10.00;95.10;;;;;;4920029;29;20206;-72
2022/03/05 11:10:33;;;;;;;18.20;7.73;;;9.70;95.80;;;;;;4920122;29;20210;-73
2022/03/05 11:13:02;;;;;;;22.67;9.00;;;9.60;96.10;;;;;;4919802;29;20214;-77
2022/03/05 11:15:30;;;;;;;19.33;7.73;;;9.30;96.30;;;;;;4919290;29;20612;-73
2022/03/05 11:17:58;;;;;;;22.33;8.77;;;9.20;96.30;;;;;;4922784;29;20217;-71
2022/03/05 11:20:26;;;;;;;16.60;7.10;;;9.40;95.80;;;;;;4922770;29;20210;-71
2022/03/05 11:22:54;;;;;;;19.53;8.63;;;9.70;96.10;;;;;;4919383;29;20220;-72
2022/03/05 11:25:24;;;;;;;18.90;7.97;;;9.70;95.10;;;;;;4919568;29;20776;-76
2022/03/05 11:27:58;;;;;;;18.83;7.70;;;9.80;95.20;;;;;;4919884;29;20228;-73
2022/03/05 11:30:26;;;;;;;18.50;8.13;;;9.50;95.00;;;;;;4919425;29;20751;-72
2022/03/05 11:32:53;;;;;;;17.00;7.53;;;9.40;95.70;;;;;;4919880;29;20583;-71
2022/03/05 11:35:22;;;;;;;17.93;8.27;;;9.60;95.80;;;;;;4919265;29;20224;-72
2022/03/05 11:37:50;;;;;;;18.50;8.17;;;9.80;94.70;;;;;;4919383;29;20222;-72
2022/03/05 11:40:39;;;;;;;20.30;8.27;;;10.00;94.30;;;;;;4918854;29;20598;-73
2022/03/05 11:43:16;;;;;;;22.00;8.33;;;9.80;95.10;;;;;;4919515;29;20205;-77
2022/03/05 11:45:51;;;;;;;16.47;7.10;;;9.70;95.40;;;;;;4918983;29;20218;-74
2022/03/05 11:48:30;;;;;;;20.93;8.73;;;9.90;94.30;;;;;;4919073;29;20216;-73
2022/03/05 11:50:59;;;;;;;23.00;7.70;;;10.00;94.10;;;;;;4919203;29;20236;-72
2022/03/05 11:53:26;;;;;;;18.20;7.83;;;10.00;93.70;;;;;;4918965;29;20233;-72
2022/03/05 11:55:55;;;;;;;18.20;8.10;;;10.00;93.90;;;;;;4919319;29;20581;-72
2022/03/05 11:58:31;;;;;;;22.17;8.83;;;10.00;94.00;;;;;;4919446;29;20209;-74
2022/03/05 12:00:58;;;;;;;17.97;8.23;;;10.00;93.80;;;;;;4918728;29;20213;-72
2022/03/05 12:03:45;;;;;;;17.07;7.03;;;9.80;93.90;;;;;;4917514;29;20296;-73
2022/03/05 12:06:13;;;;;;;18.40;7.93;;;9.90;94.10;;;;;;4932019;29;20413;-73
2022/03/05 12:08:51;;;;;;;19.40;7.90;;;10.00;93.50;;;;;;4936301;29;20561;-73
2022/03/05 12:11:22;;;;;;;15.83;7.83;;;10.20;94.00;;;;;;4937098;29;20238;-72
2022/03/05 12:13:54;;;;;;;15.87;7.87;;;10.30;93.70;;;;;;4935402;29;20292;-76
2022/03/05 12:16:23;;;;;;;13.43;7.03;;;10.30;94.10;;;;;;4934054;29;20268;-73
2022/03/05 12:18:50;;;;;;;17.17;7.70;;;10.20;93.80;;;;;;4936105;29;20212;-75
2022/03/05 12:21:21;;;;;;;18.70;8.17;;;10.20;94.40;;;;;;4930717;29;20572;-73
2022/03/05 12:23:48;;;;;;;15.97;7.17;;;10.20;95.10;;;;;;4935994;29;20224;-73
2022/03/05 12:26:17;;;;;;;17.93;7.00;;;10.30;95.00;;;;;;4935631;29;20292;-73
2022/03/05 12:28:45;;;;;;;19.93;8.13;;;10.50;95.10;;;;;;4935601;29;20213;-77
2022/03/05 12:31:16;;;;;;;18.20;7.93;;;10.60;95.40;;;;;;4935885;29;20307;-72
2022/03/05 12:33:46;;;;;;;18.17;7.63;;;10.60;94.90;;;;;;4935559;29;20573;-72
2022/03/05 12:36:17;;;;;;;16.50;7.80;;;10.70;94.40;;;;;;4936321;29;20213;-77
2022/03/05 12:38:44;;;;;;;20.00;8.83;;;10.80;94.70;;;;;;4936410;29;20211;-74
2022/03/05 12:41:11;;;;;;;18.27;7.40;;;10.70;95.20;;;;;;4935893;29;20208;-76
2022/03/05 12:43:43;;;;;;;15.77;7.47;;;10.60;95.10;;;;;;4935788;29;20561;-73
2022/03/05 12:46:11;;;;;;;22.83;8.40;;;10.50;94.90;;;;;;4919554;29;20209;-73
2022/03/05 12:48:38;;;;;;;17.40;7.53;;;10.60;95.10;;;;;;4928499;29;20215;-72